sensor_id;sensor_type;location;lat;lon;timestamp;temperature;humidity
22290;DHT22;11313;50.116;8.424;2022-11-13T00:01:52;23.60;52.50
22290;DHT22;11313;50.116;8.424;2022-11-13T00:04:17;23.60;52.50
22290;DHT22;11313;50.116;8.424;2022-11-13T00:06:43;23.60;52.40
22290;DHT22;11313;50.116;8.424;2022-11-13T00:09:10;23.60;52.40
22290;DHT22;11313;50.116;8.424;2022-11-13T00:11:36;23.60;52.40
22290;DHT22;11313;50.116;8.424;2022-11-13T00:14:01;23.60;52.40
22290;DHT22;11313;50.116;8.424;2022-11-13T00:16:27;23.60;52.40
22290;DHT22;11313;50.116;8.424;2022-11-13T00:18:52;23.60;52.40
22290;DHT22;11313;50.116;8.424;2022-11-13T00:21:20;23.60;52.40
22290;DHT22;11313;50.116;8.424;2022-11-13T00:23:47;23.60;52.40
22290;DHT22;11313;50.116;8.424;2022-11-13T00:26:16;23.50;52.30
22290;DHT22;11313;50.116;8.424;2022-11-13T00:28:42;23.60;52.40
22290;DHT22;11313;50.116;8.424;2022-11-13T00:31:09;23.60;52.40
22290;DHT22;11313;50.116;8.424;2022-11-13T00:33:35;23.50;52.40
22290;DHT22;11313;50.116;8.424;2022-11-13T00:36:06;23.60;52.40
22290;DHT22;11313;50.116;8.424;2022-11-13T00:38:33;23.60;52.40
22290;DHT22;11313;50.116;8.424;2022-11-13T00:40:58;23.60;52.30
22290;DHT22;11313;50.116;8.424;2022-11-13T00:43:24;23.50;52.30
22290;DHT22;11313;50.116;8.424;2022-11-13T00:45:50;23.50;52.30
22290;DHT22;11313;50.116;8.424;2022-11-13T00:48:16;23.50;52.30
22290;DHT22;11313;50.116;8.424;2022-11-13T00:50:42;23.60;52.40
22290;DHT22;11313;50.116;8.424;2022-11-13T00:53:07;23.50;52.30
22290;DHT22;11313;50.116;8.424;2022-11-13T00:55:33;23.60;52.30
22290;DHT22;11313;50.116;8.424;2022-11-13T00:57:58;23.60;52.30
22290;DHT22;11313;50.116;8.424;2022-11-13T01:00:24;23.50;52.30
22290;DHT22;11313;50.116;8.424;2022-11-13T01:02:49;23.50;52.30
22290;DHT22;11313;50.116;8.424;2022-11-13T01:05:15;23.50;52.30
22290;DHT22;11313;50.116;8.424;2022-11-13T01:07:40;23.50;52.30
22290;DHT22;11313;50.116;8.424;2022-11-13T01:10:07;23.60;52.30
22290;DHT22;11313;50.116;8.424;2022-11-13T01:12:32;23.50;52.30
22290;DHT22;11313;50.116;8.424;2022-11-13T01:14:58;23.50;52.30
22290;DHT22;11313;50.116;8.424;2022-11-13T01:17:24;23.50;52.30
22290;DHT22;11313;50.116;8.424;2022-11-13T01:19:49;23.50;52.30
22290;DHT22;11313;50.116;8.424;2022-11-13T01:22:15;23.50;52.30
22290;DHT22;11313;50.116;8.424;2022-11-13T01:24:40;23.60;52.30
22290;DHT22;11313;50.116;8.424;2022-11-13T01:27:06;23.50;52.20
22290;DHT22;11313;50.116;8.424;2022-11-13T01:29:31;23.60;52.30
22290;DHT22;11313;50.116;8.424;2022-11-13T01:31:57;23.60;52.30
22290;DHT22;11313;50.116;8.424;2022-11-13T01:34:22;23.60;52.30
22290;DHT22;11313;50.116;8.424;2022-11-13T01:36:48;23.60;52.30
22290;DHT22;11313;50.116;8.424;2022-11-13T01:39:13;23.50;52.30
22290;DHT22;11313;50.116;8.424;2022-11-13T01:41:39;23.50;52.20
22290;DHT22;11313;50.116;8.424;2022-11-13T01:44:12;23.60;52.30
22290;DHT22;11313;50.116;8.424;2022-11-13T01:46:56;23.60;52.30
22290;DHT22;11313;50.116;8.424;2022-11-13T01:49:32;23.60;52.30
22290;DHT22;11313;50.116;8.424;2022-11-13T01:52:01;23.50;52.20
22290;DHT22;11313;50.116;8.424;2022-11-13T01:54:37;23.50;52.20
22290;DHT22;11313;50.116;8.424;2022-11-13T01:57:04;23.50;52.20
22290;DHT22;11313;50.116;8.424;2022-11-13T01:59:37;23.50;52.20
22290;DHT22;11313;50.116;8.424;2022-11-13T02:02:03;23.50;52.20
22290;DHT22;11313;50.116;8.424;2022-11-13T02:04:29;23.50;52.20
22290;DHT22;11313;50.116;8.424;2022-11-13T02:06:59;23.50;52.30
22290;DHT22;11313;50.116;8.424;2022-11-13T02:09:29;23.50;52.80
22290;DHT22;11313;50.116;8.424;2022-11-13T02:11:56;23.50;52.20
22290;DHT22;11313;50.116;8.424;2022-11-13T02:14:24;23.50;52.20
22290;DHT22;11313;50.116;8.424;2022-11-13T02:16:52;23.50;52.20
22290;DHT22;11313;50.116;8.424;2022-11-13T02:19:30;23.50;52.20
22290;DHT22;11313;50.116;8.424;2022-11-13T02:24:43;23.50;52.20
22290;DHT22;11313;50.116;8.424;2022-11-13T02:29:53;23.50;52.20
22290;DHT22;11313;50.116;8.424;2022-11-13T02:32:18;23.50;52.30
22290;DHT22;11313;50.116;8.424;2022-11-13T02:34:44;23.50;52.30
22290;DHT22;11313;50.116;8.424;2022-11-13T02:37:10;23.50;52.20
22290;DHT22;11313;50.116;8.424;2022-11-13T02:39:35;23.50;52.20
22290;DHT22;11313;50.116;8.424;2022-11-13T02:42:01;23.50;52.20
22290;DHT22;11313;50.116;8.424;2022-11-13T02:44:26;23.50;52.20
22290;DHT22;11313;50.116;8.424;2022-11-13T02:46:51;23.50;52.20
22290;DHT22;11313;50.116;8.424;2022-11-13T02:49:17;23.50;52.20
22290;DHT22;11313;50.116;8.424;2022-11-13T02:51:42;23.50;52.30
22290;DHT22;11313;50.116;8.424;2022-11-13T02:54:08;23.50;52.20
22290;DHT22;11313;50.116;8.424;2022-11-13T02:56:33;23.50;52.20
22290;DHT22;11313;50.116;8.424;2022-11-13T02:58:59;23.50;52.20
22290;DHT22;11313;50.116;8.424;2022-11-13T03:01:24;23.50;52.20
22290;DHT22;11313;50.116;8.424;2022-11-13T03:03:50;23.50;52.20
22290;DHT22;11313;50.116;8.424;2022-11-13T03:06:15;23.50;52.20
22290;DHT22;11313;50.116;8.424;2022-11-13T03:08:41;23.50;52.20
22290;DHT22;11313;50.116;8.424;2022-11-13T03:11:08;23.50;52.20
22290;DHT22;11313;50.116;8.424;2022-11-13T03:13:35;23.50;52.10
22290;DHT22;11313;50.116;8.424;2022-11-13T03:16:12;23.50;52.10
22290;DHT22;11313;50.116;8.424;2022-11-13T03:18:38;23.50;52.20
22290;DHT22;11313;50.116;8.424;2022-11-13T03:21:06;23.50;52.20
22290;DHT22;11313;50.116;8.424;2022-11-13T03:23:32;23.60;52.20
22290;DHT22;11313;50.116;8.424;2022-11-13T03:26:02;23.50;52.10
22290;DHT22;11313;50.116;8.424;2022-11-13T03:28:28;23.60;52.10
22290;DHT22;11313;50.116;8.424;2022-11-13T03:30:54;23.60;52.10
22290;DHT22;11313;50.116;8.424;2022-11-13T03:33:19;23.60;52.10
22290;DHT22;11313;50.116;8.424;2022-11-13T03:35:46;23.60;52.10
22290;DHT22;11313;50.116;8.424;2022-11-13T03:38:12;23.60;52.10
22290;DHT22;11313;50.116;8.424;2022-11-13T03:40:37;23.60;52.10
22290;DHT22;11313;50.116;8.424;2022-11-13T03:43:03;23.60;52.00
22290;DHT22;11313;50.116;8.424;2022-11-13T03:45:28;23.60;52.00
22290;DHT22;11313;50.116;8.424;2022-11-13T03:47:54;23.60;52.10
22290;DHT22;11313;50.116;8.424;2022-11-13T03:50:19;23.60;52.10
22290;DHT22;11313;50.116;8.424;2022-11-13T03:52:45;23.60;52.00
22290;DHT22;11313;50.116;8.424;2022-11-13T03:55:10;23.60;52.00
22290;DHT22;11313;50.116;8.424;2022-11-13T03:57:36;23.60;52.00
22290;DHT22;11313;50.116;8.424;2022-11-13T04:00:01;23.60;52.10
22290;DHT22;11313;50.116;8.424;2022-11-13T04:02:28;23.60;52.00
22290;DHT22;11313;50.116;8.424;2022-11-13T04:04:53;23.60;52.00
22290;DHT22;11313;50.116;8.424;2022-11-13T04:07:18;23.60;52.00
22290;DHT22;11313;50.116;8.424;2022-11-13T04:09:44;23.60;52.00
22290;DHT22;11313;50.116;8.424;2022-11-13T04:12:09;23.60;52.00
22290;DHT22;11313;50.116;8.424;2022-11-13T04:14:35;23.60;52.00
22290;DHT22;11313;50.116;8.424;2022-11-13T04:17:00;23.60;52.00
22290;DHT22;11313;50.116;8.424;2022-11-13T04:19:26;23.60;52.00
22290;DHT22;11313;50.116;8.424;2022-11-13T04:21:51;23.60;52.00
22290;DHT22;11313;50.116;8.424;2022-11-13T04:24:17;23.60;52.00
22290;DHT22;11313;50.116;8.424;2022-11-13T04:26:42;23.60;52.00
22290;DHT22;11313;50.116;8.424;2022-11-13T04:29:08;23.60;51.90
22290;DHT22;11313;50.116;8.424;2022-11-13T04:31:33;23.60;52.00
22290;DHT22;11313;50.116;8.424;2022-11-13T04:33:58;23.60;52.00
22290;DHT22;11313;50.116;8.424;2022-11-13T04:36:25;23.60;51.90
22290;DHT22;11313;50.116;8.424;2022-11-13T04:38:50;23.60;51.90
22290;DHT22;11313;50.116;8.424;2022-11-13T04:41:16;23.60;51.90
22290;DHT22;11313;50.116;8.424;2022-11-13T04:44:00;23.60;51.90
22290;DHT22;11313;50.116;8.424;2022-11-13T04:46:25;23.60;51.90
22290;DHT22;11313;50.116;8.424;2022-11-13T04:48:51;23.60;52.00
22290;DHT22;11313;50.116;8.424;2022-11-13T04:51:16;23.60;52.00
22290;DHT22;11313;50.116;8.424;2022-11-13T04:53:42;23.60;52.00
22290;DHT22;11313;50.116;8.424;2022-11-13T04:56:07;23.60;52.00
22290;DHT22;11313;50.116;8.424;2022-11-13T04:58:33;23.60;52.00
22290;DHT22;11313;50.116;8.424;2022-11-13T05:00:58;23.60;52.00
22290;DHT22;11313;50.116;8.424;2022-11-13T05:03:24;23.60;52.70
22290;DHT22;11313;50.116;8.424;2022-11-13T05:05:49;23.60;52.00
22290;DHT22;11313;50.116;8.424;2022-11-13T05:08:15;23.60;52.00
22290;DHT22;11313;50.116;8.424;2022-11-13T05:10:40;23.60;52.00
22290;DHT22;11313;50.116;8.424;2022-11-13T05:13:05;23.60;52.00
22290;DHT22;11313;50.116;8.424;2022-11-13T05:15:31;23.60;52.00
22290;DHT22;11313;50.116;8.424;2022-11-13T05:17:56;23.50;52.00
22290;DHT22;11313;50.116;8.424;2022-11-13T05:20:22;23.60;52.00
22290;DHT22;11313;50.116;8.424;2022-11-13T05:22:47;23.50;52.00
22290;DHT22;11313;50.116;8.424;2022-11-13T05:25:13;23.50;52.00
22290;DHT22;11313;50.116;8.424;2022-11-13T05:27:38;23.50;52.00
22290;DHT22;11313;50.116;8.424;2022-11-13T05:30:04;23.50;52.10
22290;DHT22;11313;50.116;8.424;2022-11-13T05:32:31;23.50;52.10
22290;DHT22;11313;50.116;8.424;2022-11-13T05:34:56;23.50;52.00
22290;DHT22;11313;50.116;8.424;2022-11-13T05:37:22;23.50;52.00
22290;DHT22;11313;50.116;8.424;2022-11-13T05:39:47;23.50;52.10
22290;DHT22;11313;50.116;8.424;2022-11-13T05:42:13;23.50;52.70
22290;DHT22;11313;50.116;8.424;2022-11-13T05:44:38;23.50;52.70
22290;DHT22;11313;50.116;8.424;2022-11-13T05:47:04;23.50;52.00
22290;DHT22;11313;50.116;8.424;2022-11-13T05:49:29;23.50;52.10
22290;DHT22;11313;50.116;8.424;2022-11-13T05:51:55;23.50;52.10
22290;DHT22;11313;50.116;8.424;2022-11-13T05:54:20;23.50;52.00
22290;DHT22;11313;50.116;8.424;2022-11-13T05:56:46;23.50;52.70
22290;DHT22;11313;50.116;8.424;2022-11-13T05:59:11;23.50;52.00
22290;DHT22;11313;50.116;8.424;2022-11-13T06:01:38;23.50;52.10
22290;DHT22;11313;50.116;8.424;2022-11-13T06:04:05;23.50;52.10
22290;DHT22;11313;50.116;8.424;2022-11-13T06:06:31;23.50;52.00
22290;DHT22;11313;50.116;8.424;2022-11-13T06:08:59;23.50;52.10
22290;DHT22;11313;50.116;8.424;2022-11-13T06:11:26;23.50;52.00
22290;DHT22;11313;50.116;8.424;2022-11-13T06:13:53;23.50;52.00
22290;DHT22;11313;50.116;8.424;2022-11-13T06:16:23;23.60;52.00
22290;DHT22;11313;50.116;8.424;2022-11-13T06:18:50;23.60;52.00
22290;DHT22;11313;50.116;8.424;2022-11-13T06:21:20;23.50;52.00
22290;DHT22;11313;50.116;8.424;2022-11-13T06:23:46;23.50;52.10
22290;DHT22;11313;50.116;8.424;2022-11-13T06:26:21;23.50;52.70
22290;DHT22;11313;50.116;8.424;2022-11-13T06:28:46;23.50;52.10
22290;DHT22;11313;50.116;8.424;2022-11-13T06:31:21;23.50;52.20
22290;DHT22;11313;50.116;8.424;2022-11-13T06:33:48;23.50;52.10
22290;DHT22;11313;50.116;8.424;2022-11-13T06:36:19;23.50;52.00
22290;DHT22;11313;50.116;8.424;2022-11-13T06:38:45;23.60;51.90
22290;DHT22;11313;50.116;8.424;2022-11-13T06:41:13;23.60;51.90
22290;DHT22;11313;50.116;8.424;2022-11-13T06:43:40;23.60;51.80
22290;DHT22;11313;50.116;8.424;2022-11-13T06:46:09;23.60;51.80
22290;DHT22;11313;50.116;8.424;2022-11-13T06:48:35;23.60;51.70
22290;DHT22;11313;50.116;8.424;2022-11-13T06:51:03;23.60;51.70
22290;DHT22;11313;50.116;8.424;2022-11-13T06:53:29;23.60;51.70
22290;DHT22;11313;50.116;8.424;2022-11-13T06:55:55;23.60;51.60
22290;DHT22;11313;50.116;8.424;2022-11-13T06:58:21;23.60;51.60
22290;DHT22;11313;50.116;8.424;2022-11-13T07:00:46;23.60;51.50
22290;DHT22;11313;50.116;8.424;2022-11-13T07:03:17;23.60;51.60
22290;DHT22;11313;50.116;8.424;2022-11-13T07:05:43;23.60;51.50
22290;DHT22;11313;50.116;8.424;2022-11-13T07:08:09;23.60;51.50
22290;DHT22;11313;50.116;8.424;2022-11-13T07:10:35;23.60;51.50
22290;DHT22;11313;50.116;8.424;2022-11-13T07:13:01;23.60;51.50
22290;DHT22;11313;50.116;8.424;2022-11-13T07:15:26;23.60;51.30
22290;DHT22;11313;50.116;8.424;2022-11-13T07:17:52;23.60;51.40
22290;DHT22;11313;50.116;8.424;2022-11-13T07:20:18;23.60;51.40
22290;DHT22;11313;50.116;8.424;2022-11-13T07:22:43;23.60;51.40
22290;DHT22;11313;50.116;8.424;2022-11-13T07:25:09;23.60;51.30
22290;DHT22;11313;50.116;8.424;2022-11-13T07:27:34;23.60;51.20
22290;DHT22;11313;50.116;8.424;2022-11-13T07:30:00;23.60;51.30
22290;DHT22;11313;50.116;8.424;2022-11-13T07:32:26;23.60;51.20
22290;DHT22;11313;50.116;8.424;2022-11-13T07:34:51;23.60;51.20
22290;DHT22;11313;50.116;8.424;2022-11-13T07:37:17;23.60;51.20
22290;DHT22;11313;50.116;8.424;2022-11-13T07:39:42;23.60;51.10
22290;DHT22;11313;50.116;8.424;2022-11-13T07:42:08;23.60;51.00
22290;DHT22;11313;50.116;8.424;2022-11-13T07:44:33;23.60;51.20
22290;DHT22;11313;50.116;8.424;2022-11-13T07:47:00;23.60;51.20
22290;DHT22;11313;50.116;8.424;2022-11-13T07:49:26;23.60;51.10
22290;DHT22;11313;50.116;8.424;2022-11-13T07:51:51;23.60;51.20
22290;DHT22;11313;50.116;8.424;2022-11-13T07:54:17;23.60;51.20
22290;DHT22;11313;50.116;8.424;2022-11-13T07:56:43;23.60;51.20
22290;DHT22;11313;50.116;8.424;2022-11-13T07:59:08;23.60;51.10
22290;DHT22;11313;50.116;8.424;2022-11-13T08:01:34;23.60;51.00
22290;DHT22;11313;50.116;8.424;2022-11-13T08:03:59;23.60;51.10
22290;DHT22;11313;50.116;8.424;2022-11-13T08:06:25;23.60;51.20
22290;DHT22;11313;50.116;8.424;2022-11-13T08:08:52;23.60;51.20
22290;DHT22;11313;50.116;8.424;2022-11-13T08:11:18;23.50;51.20
22290;DHT22;11313;50.116;8.424;2022-11-13T08:13:43;23.60;51.30
22290;DHT22;11313;50.116;8.424;2022-11-13T08:16:08;23.60;51.30
22290;DHT22;11313;50.116;8.424;2022-11-13T08:18:34;23.60;51.30
22290;DHT22;11313;50.116;8.424;2022-11-13T08:21:01;23.60;51.40
22290;DHT22;11313;50.116;8.424;2022-11-13T08:23:27;23.60;51.40
22290;DHT22;11313;50.116;8.424;2022-11-13T08:25:52;23.60;51.40
22290;DHT22;11313;50.116;8.424;2022-11-13T08:28:18;23.60;51.40
22290;DHT22;11313;50.116;8.424;2022-11-13T08:30:44;23.60;51.40
22290;DHT22;11313;50.116;8.424;2022-11-13T08:33:10;23.60;51.50
22290;DHT22;11313;50.116;8.424;2022-11-13T08:35:35;23.60;51.40
22290;DHT22;11313;50.116;8.424;2022-11-13T08:38:05;23.60;51.50
22290;DHT22;11313;50.116;8.424;2022-11-13T08:40:31;23.60;51.50
22290;DHT22;11313;50.116;8.424;2022-11-13T08:43:00;23.60;51.50
22290;DHT22;11313;50.116;8.424;2022-11-13T08:45:27;23.60;51.50
22290;DHT22;11313;50.116;8.424;2022-11-13T08:47:52;23.60;51.50
22290;DHT22;11313;50.116;8.424;2022-11-13T08:50:18;23.60;51.50
22290;DHT22;11313;50.116;8.424;2022-11-13T08:52:43;23.60;51.50
22290;DHT22;11313;50.116;8.424;2022-11-13T08:55:09;23.60;51.50
22290;DHT22;11313;50.116;8.424;2022-11-13T08:57:35;23.60;51.50
22290;DHT22;11313;50.116;8.424;2022-11-13T09:00:00;23.60;51.50
22290;DHT22;11313;50.116;8.424;2022-11-13T09:02:26;23.60;51.50
22290;DHT22;11313;50.116;8.424;2022-11-13T09:04:52;23.60;51.50
22290;DHT22;11313;50.116;8.424;2022-11-13T09:07:17;23.60;51.50
22290;DHT22;11313;50.116;8.424;2022-11-13T09:09:43;23.60;51.50
22290;DHT22;11313;50.116;8.424;2022-11-13T09:12:08;23.60;51.50
22290;DHT22;11313;50.116;8.424;2022-11-13T09:14:35;23.60;51.50
22290;DHT22;11313;50.116;8.424;2022-11-13T09:17:01;23.60;51.50
22290;DHT22;11313;50.116;8.424;2022-11-13T09:19:26;23.60;51.50
22290;DHT22;11313;50.116;8.424;2022-11-13T09:21:52;23.60;51.50
22290;DHT22;11313;50.116;8.424;2022-11-13T09:24:18;23.60;51.50
22290;DHT22;11313;50.116;8.424;2022-11-13T09:26:43;23.60;51.40
22290;DHT22;11313;50.116;8.424;2022-11-13T09:29:09;23.60;51.40
22290;DHT22;11313;50.116;8.424;2022-11-13T09:31:35;23.70;51.40
22290;DHT22;11313;50.116;8.424;2022-11-13T09:34:02;23.70;51.40
22290;DHT22;11313;50.116;8.424;2022-11-13T09:36:28;23.60;51.30
22290;DHT22;11313;50.116;8.424;2022-11-13T09:38:53;23.70;51.20
22290;DHT22;11313;50.116;8.424;2022-11-13T09:41:28;23.70;51.30
22290;DHT22;11313;50.116;8.424;2022-11-13T09:43:57;23.70;51.20
22290;DHT22;11313;50.116;8.424;2022-11-13T09:46:44;23.70;51.10
22290;DHT22;11313;50.116;8.424;2022-11-13T09:49:26;23.70;50.80
22290;DHT22;11313;50.116;8.424;2022-11-13T09:51:55;23.70;50.90
22290;DHT22;11313;50.116;8.424;2022-11-13T09:54:22;23.70;50.70
22290;DHT22;11313;50.116;8.424;2022-11-13T09:57:00;23.70;50.70
22290;DHT22;11313;50.116;8.424;2022-11-13T10:00:04;23.70;50.70
22290;DHT22;11313;50.116;8.424;2022-11-13T10:08:15;23.70;50.30
22290;DHT22;11313;50.116;8.424;2022-11-13T10:10:49;23.70;50.30
22290;DHT22;11313;50.116;8.424;2022-11-13T10:13:24;23.70;50.20
22290;DHT22;11313;50.116;8.424;2022-11-13T10:15:56;23.70;50.30
22290;DHT22;11313;50.116;8.424;2022-11-13T10:18:28;23.80;50.30
22290;DHT22;11313;50.116;8.424;2022-11-13T10:21:14;23.80;50.00
22290;DHT22;11313;50.116;8.424;2022-11-13T10:23:43;23.80;50.00
22290;DHT22;11313;50.116;8.424;2022-11-13T10:26:15;23.80;50.10
22290;DHT22;11313;50.116;8.424;2022-11-13T10:28:41;23.80;50.10
22290;DHT22;11313;50.116;8.424;2022-11-13T10:31:09;23.80;50.10
22290;DHT22;11313;50.116;8.424;2022-11-13T10:33:35;23.80;50.00
22290;DHT22;11313;50.116;8.424;2022-11-13T10:38:47;23.80;50.10
22290;DHT22;11313;50.116;8.424;2022-11-13T10:41:19;23.80;50.10
22290;DHT22;11313;50.116;8.424;2022-11-13T10:44:04;23.80;50.10
22290;DHT22;11313;50.116;8.424;2022-11-13T10:46:30;23.80;50.10
22290;DHT22;11313;50.116;8.424;2022-11-13T10:48:58;23.80;50.00
22290;DHT22;11313;50.116;8.424;2022-11-13T10:51:34;23.90;50.10
22290;DHT22;11313;50.116;8.424;2022-11-13T10:54:21;23.90;50.00
22290;DHT22;11313;50.116;8.424;2022-11-13T10:56:59;23.80;50.00
22290;DHT22;11313;50.116;8.424;2022-11-13T10:59:25;23.80;50.00
22290;DHT22;11313;50.116;8.424;2022-11-13T11:01:51;23.80;50.00
22290;DHT22;11313;50.116;8.424;2022-11-13T11:04:25;23.80;49.90
22290;DHT22;11313;50.116;8.424;2022-11-13T11:06:54;23.80;50.00
22290;DHT22;11313;50.116;8.424;2022-11-13T11:09:29;23.90;49.90
22290;DHT22;11313;50.116;8.424;2022-11-13T11:23:26;23.90;50.00
22290;DHT22;11313;50.116;8.424;2022-11-13T11:28:52;23.90;50.00
22290;DHT22;11313;50.116;8.424;2022-11-13T11:34:11;23.90;50.70
22290;DHT22;11313;50.116;8.424;2022-11-13T11:36:48;23.90;50.00
22290;DHT22;11313;50.116;8.424;2022-11-13T11:47:19;23.90;50.10
22290;DHT22;11313;50.116;8.424;2022-11-13T11:49:44;23.90;50.00
22290;DHT22;11313;50.116;8.424;2022-11-13T11:58:31;23.90;50.00
22290;DHT22;11313;50.116;8.424;2022-11-13T12:04:04;23.90;50.00
22290;DHT22;11313;50.116;8.424;2022-11-13T12:06:55;23.90;50.00
22290;DHT22;11313;50.116;8.424;2022-11-13T12:09:30;23.90;50.00
22290;DHT22;11313;50.116;8.424;2022-11-13T12:12:19;23.90;50.00
22290;DHT22;11313;50.116;8.424;2022-11-13T12:18:25;23.90;50.10
22290;DHT22;11313;50.116;8.424;2022-11-13T12:21:20;23.90;50.10
22290;DHT22;11313;50.116;8.424;2022-11-13T12:27:04;23.90;50.20
22290;DHT22;11313;50.116;8.424;2022-11-13T12:29:59;23.90;50.20
22290;DHT22;11313;50.116;8.424;2022-11-13T12:35:24;23.90;50.20
22290;DHT22;11313;50.116;8.424;2022-11-13T12:40:38;23.90;50.10
22290;DHT22;11313;50.116;8.424;2022-11-13T12:45:55;23.90;50.10
22290;DHT22;11313;50.116;8.424;2022-11-13T12:48:25;23.90;50.20
22290;DHT22;11313;50.116;8.424;2022-11-13T12:50:58;23.90;50.20
22290;DHT22;11313;50.116;8.424;2022-11-13T12:53:30;23.90;50.20
22290;DHT22;11313;50.116;8.424;2022-11-13T13:01:46;23.80;50.20
22290;DHT22;11313;50.116;8.424;2022-11-13T13:07:33;23.90;50.20
22290;DHT22;11313;50.116;8.424;2022-11-13T13:12:50;23.90;50.20
22290;DHT22;11313;50.116;8.424;2022-11-13T13:18:28;23.90;50.30
22290;DHT22;11313;50.116;8.424;2022-11-13T13:21:11;23.90;50.30
22290;DHT22;11313;50.116;8.424;2022-11-13T13:23:45;23.90;50.30
22290;DHT22;11313;50.116;8.424;2022-11-13T13:26:22;23.90;50.40
22290;DHT22;11313;50.116;8.424;2022-11-13T13:28:59;23.90;50.40
22290;DHT22;11313;50.116;8.424;2022-11-13T13:31:59;23.90;50.40
22290;DHT22;11313;50.116;8.424;2022-11-13T13:37:34;23.90;50.40
22290;DHT22;11313;50.116;8.424;2022-11-13T13:43:17;23.90;50.50
22290;DHT22;11313;50.116;8.424;2022-11-13T13:46:12;23.90;50.60
22290;DHT22;11313;50.116;8.424;2022-11-13T13:48:41;23.90;50.70
22290;DHT22;11313;50.116;8.424;2022-11-13T13:51:20;23.80;50.60
22290;DHT22;11313;50.116;8.424;2022-11-13T13:53:48;23.80;50.70
22290;DHT22;11313;50.116;8.424;2022-11-13T13:56:15;23.80;50.70
22290;DHT22;11313;50.116;8.424;2022-11-13T13:58:43;23.80;50.80
22290;DHT22;11313;50.116;8.424;2022-11-13T14:01:24;23.80;50.80
22290;DHT22;11313;50.116;8.424;2022-11-13T14:06:50;23.80;50.80
22290;DHT22;11313;50.116;8.424;2022-11-13T14:09:21;23.80;50.80
22290;DHT22;11313;50.116;8.424;2022-11-13T14:11:46;23.80;50.90
22290;DHT22;11313;50.116;8.424;2022-11-13T14:14:31;23.80;50.90
22290;DHT22;11313;50.116;8.424;2022-11-13T14:16:58;23.80;50.90
22290;DHT22;11313;50.116;8.424;2022-11-13T14:19:28;23.80;51.60
22290;DHT22;11313;50.116;8.424;2022-11-13T14:21:57;23.80;51.60
22290;DHT22;11313;50.116;8.424;2022-11-13T14:24:28;23.80;51.00
22290;DHT22;11313;50.116;8.424;2022-11-13T14:26:59;23.80;51.00
22290;DHT22;11313;50.116;8.424;2022-11-13T14:29:51;23.80;50.90
22290;DHT22;11313;50.116;8.424;2022-11-13T14:32:26;23.80;51.00
22290;DHT22;11313;50.116;8.424;2022-11-13T14:34:55;23.80;51.00
22290;DHT22;11313;50.116;8.424;2022-11-13T14:37:31;23.80;51.00
22290;DHT22;11313;50.116;8.424;2022-11-13T14:40:03;23.80;51.10
22290;DHT22;11313;50.116;8.424;2022-11-13T14:42:36;23.80;51.00
22290;DHT22;11313;50.116;8.424;2022-11-13T14:45:19;23.70;51.00
22290;DHT22;11313;50.116;8.424;2022-11-13T14:47:59;23.80;51.10
22290;DHT22;11313;50.116;8.424;2022-11-13T14:50:26;23.80;51.10
22290;DHT22;11313;50.116;8.424;2022-11-13T14:53:03;23.70;51.10
22290;DHT22;11313;50.116;8.424;2022-11-13T14:55:32;23.70;51.10
22290;DHT22;11313;50.116;8.424;2022-11-13T14:57:58;23.70;51.10
22290;DHT22;11313;50.116;8.424;2022-11-13T15:00:33;23.70;51.10
22290;DHT22;11313;50.116;8.424;2022-11-13T15:03:00;23.70;51.10
22290;DHT22;11313;50.116;8.424;2022-11-13T15:05:26;23.70;51.20
22290;DHT22;11313;50.116;8.424;2022-11-13T15:07:53;23.60;51.10
22290;DHT22;11313;50.116;8.424;2022-11-13T15:10:20;23.70;51.20
22290;DHT22;11313;50.116;8.424;2022-11-13T15:12:46;23.70;51.10
22290;DHT22;11313;50.116;8.424;2022-11-13T15:15:15;23.70;51.10
22290;DHT22;11313;50.116;8.424;2022-11-13T15:17:42;23.60;51.10
22290;DHT22;11313;50.116;8.424;2022-11-13T15:20:26;23.70;51.10
22290;DHT22;11313;50.116;8.424;2022-11-13T15:22:52;23.60;51.10
22290;DHT22;11313;50.116;8.424;2022-11-13T15:25:20;23.60;51.10
22290;DHT22;11313;50.116;8.424;2022-11-13T15:27:46;23.60;51.10
22290;DHT22;11313;50.116;8.424;2022-11-13T15:30:12;23.60;51.10
22290;DHT22;11313;50.116;8.424;2022-11-13T15:32:38;23.60;51.20
22290;DHT22;11313;50.116;8.424;2022-11-13T15:35:05;23.60;51.20
22290;DHT22;11313;50.116;8.424;2022-11-13T15:37:31;23.60;51.20
22290;DHT22;11313;50.116;8.424;2022-11-13T15:39:57;23.60;51.90
22290;DHT22;11313;50.116;8.424;2022-11-13T15:42:30;23.60;51.20
22290;DHT22;11313;50.116;8.424;2022-11-13T15:44:55;23.60;51.20
22290;DHT22;11313;50.116;8.424;2022-11-13T15:47:35;23.50;51.20
22290;DHT22;11313;50.116;8.424;2022-11-13T15:50:02;23.60;51.30
22290;DHT22;11313;50.116;8.424;2022-11-13T15:52:31;23.60;51.30
22290;DHT22;11313;50.116;8.424;2022-11-13T15:55:00;23.60;51.30
22290;DHT22;11313;50.116;8.424;2022-11-13T15:57:28;23.60;51.30
22290;DHT22;11313;50.116;8.424;2022-11-13T15:59:53;23.60;51.30
22290;DHT22;11313;50.116;8.424;2022-11-13T16:02:19;23.50;51.30
22290;DHT22;11313;50.116;8.424;2022-11-13T16:04:45;23.50;51.30
22290;DHT22;11313;50.116;8.424;2022-11-13T16:07:15;23.50;51.30
22290;DHT22;11313;50.116;8.424;2022-11-13T16:09:41;23.50;51.40
22290;DHT22;11313;50.116;8.424;2022-11-13T16:12:12;23.50;51.40
22290;DHT22;11313;50.116;8.424;2022-11-13T16:14:38;23.50;51.40
22290;DHT22;11313;50.116;8.424;2022-11-13T16:17:11;23.50;51.40
22290;DHT22;11313;50.116;8.424;2022-11-13T16:19:39;23.50;51.40
22290;DHT22;11313;50.116;8.424;2022-11-13T16:22:15;23.50;51.50
22290;DHT22;11313;50.116;8.424;2022-11-13T16:24:41;23.50;51.50
22290;DHT22;11313;50.116;8.424;2022-11-13T16:27:14;23.40;51.40
22290;DHT22;11313;50.116;8.424;2022-11-13T16:29:41;23.50;51.50
22290;DHT22;11313;50.116;8.424;2022-11-13T16:32:14;23.50;51.50
22290;DHT22;11313;50.116;8.424;2022-11-13T16:34:41;23.50;51.50
22290;DHT22;11313;50.116;8.424;2022-11-13T16:37:20;23.40;51.40
22290;DHT22;11313;50.116;8.424;2022-11-13T16:39:46;23.40;51.40
22290;DHT22;11313;50.116;8.424;2022-11-13T16:42:12;23.40;51.50
22290;DHT22;11313;50.116;8.424;2022-11-13T16:44:38;23.40;51.50
22290;DHT22;11313;50.116;8.424;2022-11-13T16:47:05;23.40;51.50
22290;DHT22;11313;50.116;8.424;2022-11-13T16:49:31;23.40;51.50
22290;DHT22;11313;50.116;8.424;2022-11-13T16:51:57;23.40;51.50
22290;DHT22;11313;50.116;8.424;2022-11-13T16:54:23;23.40;51.50
22290;DHT22;11313;50.116;8.424;2022-11-13T16:56:48;23.40;51.50
22290;DHT22;11313;50.116;8.424;2022-11-13T16:59:14;23.40;51.50
22290;DHT22;11313;50.116;8.424;2022-11-13T17:01:40;23.40;51.50
22290;DHT22;11313;50.116;8.424;2022-11-13T17:04:05;23.40;51.60
22290;DHT22;11313;50.116;8.424;2022-11-13T17:06:33;23.40;51.60